Time;durP1;ratioP1;P1;durP2;ratioP2;P2;SDS_P1;SDS_P2;PMS_P1;PMS_P2;Temp;Humidity;BMP_temperature;BMP_pressure;BME280_temperature;BME280_humidity;BME280_pressure;Samples;Min_cycle;Max_cycle;Signal;HPM_P1;HPM_P2
2022/10/28 00:01:48;;;;;;;12.83;7.10;;;;;;;14.83;100.00;99832.06;4978221;28;20254;-83
2022/10/28 00:04:18;;;;;;;12.80;6.77;;;;;;;14.87;100.00;99830.06;4995975;28;20228;-83
2022/10/28 00:06:53;;;;;;;13.20;6.97;;;;;;;14.79;100.00;99835.94;5048148;28;20235;-83
2022/10/28 00:09:24;;;;;;;11.87;6.60;;;;;;;14.81;100.00;99835.81;4971021;28;20242;-83
2022/10/28 00:11:53;;;;;;;14.33;6.60;;;;;;;14.88;100.00;99832.63;5049497;28;20278;-83
2022/10/28 00:14:22;;;;;;;11.50;6.90;;;;;;;14.81;100.00;99838.47;5016326;28;20660;-83
2022/10/28 00:16:52;;;;;;;9.93;6.53;;;;;;;14.72;100.00;99839.13;5045498;28;20193;-83
2022/10/28 00:19:20;;;;;;;9.30;6.43;;;;;;;14.76;100.00;99843.28;5057259;28;20240;-84
2022/10/28 00:21:50;;;;;;;14.73;7.77;;;;;;;14.81;100.00;99842.00;5107053;28;20191;-83
2022/10/28 00:24:19;;;;;;;11.93;6.87;;;;;;;14.79;100.00;99846.59;5106203;28;20191;-83
2022/10/28 00:26:48;;;;;;;10.47;6.90;;;;;;;14.76;100.00;99835.28;5112804;28;20183;-84
2022/10/28 00:29:19;;;;;;;11.70;7.40;;;;;;;14.87;100.00;99827.38;5109165;28;20256;-83
2022/10/28 00:31:49;;;;;;;16.40;7.60;;;;;;;14.87;100.00;99827.38;5105900;28;20195;-83
2022/10/28 00:34:20;;;;;;;14.30;6.47;;;;;;;14.98;100.00;99818.63;5107844;28;20195;-83
2022/10/28 00:36:57;;;;;;;11.23;6.53;;;;;;;15.03;100.00;99821.78;5114192;28;20225;-83
2022/10/28 00:39:28;;;;;;;11.77;6.90;;;;;;;15.00;100.00;99808.69;5105116;28;20641;-83
2022/10/28 00:42:02;;;;;;;12.37;6.47;;;;;;;15.09;100.00;99816.88;5109255;28;20645;-83
2022/10/28 00:44:55;;;;;;;10.77;6.20;;;;;;;15.01;100.00;99813.06;5106461;28;20199;-83
2022/10/28 00:47:44;;;;;;;13.33;6.57;;;;;;;15.09;100.00;99810.69;5112983;28;20199;-83
2022/10/28 00:50:20;;;;;;;14.20;6.60;;;;;;;15.15;100.00;99810.22;5063845;28;20246;-83
2022/10/28 00:52:54;;;;;;;13.97;6.47;;;;;;;14.96;100.00;99823.19;5067745;28;20188;-83
2022/10/28 00:55:23;;;;;;;12.80;6.80;;;;;;;14.95;100.00;99814.31;5031182;28;20192;-83
2022/10/28 00:57:57;;;;;;;9.67;6.23;;;;;;;14.94;100.00;99823.31;5064086;28;20246;-83
2022/10/28 01:00:28;;;;;;;13.30;6.20;;;;;;;14.91;100.00;99831.53;5063093;28;20192;-83
2022/10/28 01:02:58;;;;;;;13.20;6.97;;;;;;;14.96;100.00;99817.84;5056884;28;20365;-83
2022/10/28 01:05:30;;;;;;;11.80;6.80;;;;;;;15.10;100.00;99812.38;5011257;28;20209;-83
2022/10/28 01:08:03;;;;;;;10.60;6.27;;;;;;;15.10;100.00;99815.91;4992812;28;20203;-83
2022/10/28 01:10:57;;;;;;;11.27;6.13;;;;;;;15.20;100.00;99807.25;5066598;28;20270;-83
2022/10/28 01:13:38;;;;;;;10.63;5.67;;;;;;;15.27;100.00;99811.19;5067874;28;20227;-83
2022/10/28 01:16:20;;;;;;;11.17;6.13;;;;;;;15.15;100.00;99810.22;5067856;28;20675;-83
2022/10/28 01:19:04;;;;;;;15.10;7.17;;;;;;;15.01;100.00;99799.72;5068312;28;20217;-83
2022/10/28 01:21:54;;;;;;;13.37;6.23;;;;;;;15.11;100.00;99796.25;5071481;28;20194;-83
2022/10/28 01:24:48;;;;;;;13.13;6.23;;;;;;;15.02;100.00;99794.25;5068751;28;20204;-83
2022/10/28 01:27:53;;;;;;;13.13;6.17;;;;;;;15.06;100.00;99797.56;5068524;28;20193;-83
2022/10/28 01:30:25;;;;;;;11.67;6.40;;;;;;;14.92;100.00;99789.69;5089903;28;20190;-83
2022/10/28 01:33:06;;;;;;;13.57;6.97;;;;;;;14.82;100.00;99782.34;5109005;28;20642;-83
2022/10/28 01:35:44;;;;;;;12.83;6.07;;;;;;;14.81;100.00;99790.47;5104102;28;20249;-83
2022/10/28 01:38:27;;;;;;;14.90;6.60;;;;;;;14.86;100.00;99788.31;5109210;28;20219;-83
2022/10/28 01:41:04;;;;;;;10.03;5.97;;;;;;;14.74;100.00;99773.19;5104526;28;20195;-83
2022/10/28 01:43:40;;;;;;;14.47;5.83;;;;;;;14.71;100.00;99779.59;5112166;28;20186;-83
2022/10/28 01:46:14;;;;;;;16.90;6.67;;;;;;;14.72;100.00;99788.47;5111416;28;20240;-83
2022/10/28 01:48:49;;;;;;;15.30;6.50;;;;;;;14.97;100.00;99792.91;5106385;28;20194;-83
2022/10/28 01:51:23;;;;;;;14.77;6.43;;;;;;;15.05;100.00;99775.34;5109159;28;20194;-82
2022/10/28 01:53:57;;;;;;;12.70;6.20;;;;;;;15.18;100.00;99765.50;5108761;28;20202;-83
2022/10/28 01:56:30;;;;;;;12.00;5.87;;;;;;;15.21;100.00;99764.41;5108225;28;20195;-83
2022/10/28 01:59:02;;;;;;;11.33;6.03;;;;;;;15.25;100.00;99765.91;5110377;28;20735;-83
2022/10/28 02:01:33;;;;;;;10.47;6.00;;;;;;;15.40;100.00;99771.94;5073726;28;20252;-83
2022/10/28 02:04:06;;;;;;;14.07;6.40;;;;;;;15.29;100.00;99774.53;5108713;28;20191;-83
2022/10/28 02:06:35;;;;;;;13.50;5.80;;;;;;;15.28;100.00;99757.69;5111098;28;20703;-83
2022/10/28 02:09:24;;;;;;;12.73;6.00;;;;;;;15.34;100.00;99751.00;5109478;28;20240;-83
2022/10/28 02:12:17;;;;;;;12.20;5.80;;;;;;;15.32;100.00;99752.94;5111395;28;20258;-83
2022/10/28 02:15:26;;;;;;;6.90;5.30;;;;;;;15.42;100.00;99754.81;5111750;28;20230;-83
2022/10/28 02:18:12;;;;;;;10.83;5.87;;;;;;;15.40;100.00;99753.25;5108423;28;20217;-83
2022/10/28 02:20:48;;;;;;;11.30;5.80;;;;;;;15.41;100.00;99753.13;5115359;28;20210;-82
2022/10/28 02:23:26;;;;;;;10.77;5.40;;;;;;;15.30;100.00;99766.41;5111858;28;20212;-83
2022/10/28 02:26:00;;;;;;;18.87;6.30;;;;;;;15.42;100.00;99770.00;5103997;28;20203;-83
2022/10/28 02:28:38;;;;;;;12.03;5.40;;;;;;;15.45;100.00;99785.81;5117865;27;20244;-83
2022/10/28 02:31:22;;;;;;;7.87;5.30;;;;;;;15.39;100.00;99788.91;5070960;28;20189;-83
2022/10/28 02:33:56;;;;;;;12.50;5.93;;;;;;;15.42;100.00;99799.34;5070311;28;20192;-83
2022/10/28 02:36:34;;;;;;;10.80;5.93;;;;;;;14.71;100.00;99795.59;5046551;28;20274;-81
2022/10/28 02:39:06;;;;;;;11.27;5.80;;;;;;;14.42;100.00;99797.63;5048359;28;20221;-81
2022/10/28 02:41:41;;;;;;;12.47;5.60;;;;;;;14.56;100.00;99781.53;4990798;28;20191;-81
2022/10/28 02:44:15;;;;;;;13.03;6.70;;;;;;;14.59;100.00;99761.81;4988468;28;20207;-81
2022/10/28 02:46:47;;;;;;;10.03;5.50;;;;;;;14.67;100.00;99748.81;4994414;28;20195;-81
2022/10/28 02:49:15;;;;;;;12.37;6.10;;;;;;;14.73;100.00;99745.69;5001766;28;20214;-83
2022/10/28 02:51:49;;;;;;;9.70;5.83;;;;;;;14.78;100.00;99770.22;5008404;28;20194;-83
2022/10/28 02:54:26;;;;;;;10.97;6.33;;;;;;;14.90;100.00;99773.81;5009484;28;20240;-84
2022/10/28 02:57:02;;;;;;;10.57;5.73;;;;;;;15.02;100.00;99761.38;5006458;28;20194;-84
2022/10/28 02:59:31;;;;;;;10.23;6.43;;;;;;;15.02;100.00;99751.56;5034541;28;20220;-82
2022/10/28 03:02:00;;;;;;;9.47;6.03;;;;;;;15.00;100.00;99747.31;5067786;28;20216;-81
2022/10/28 03:04:28;;;;;;;11.80;6.27;;;;;;;14.94;100.00;99769.94;5067409;28;20200;-82
2022/10/28 03:06:58;;;;;;;10.23;6.40;;;;;;;14.78;100.00;99788.03;4989736;28;20241;-82
2022/10/28 03:09:27;;;;;;;11.47;5.87;;;;;;;14.93;100.00;99794.06;4984039;28;20191;-82
2022/10/28 03:11:55;;;;;;;11.30;6.23;;;;;;;15.02;100.00;99801.41;4988760;28;20215;-82
2022/10/28 03:14:24;;;;;;;10.27;6.30;;;;;;;15.14;100.00;99782.69;4987843;28;20211;-82
2022/10/28 03:16:52;;;;;;;11.93;5.50;;;;;;;15.32;100.00;99774.31;4990937;28;20207;-81
2022/10/28 03:19:20;;;;;;;13.13;5.77;;;;;;;15.32;100.00;99768.97;4990094;28;20761;-82
2022/10/28 03:21:48;;;;;;;14.67;6.80;;;;;;;15.29;100.00;99762.03;4948870;29;20204;-81
2022/10/28 03:24:21;;;;;;;16.67;6.63;;;;;;;15.25;100.00;99755.25;4950632;29;20203;-81
2022/10/28 03:26:49;;;;;;;11.57;5.80;;;;;;;15.26;100.00;99766.78;4954187;29;20200;-81
2022/10/28 03:29:18;;;;;;;10.50;5.53;;;;;;;15.11;100.00;99782.94;4952992;29;20196;-81
2022/10/28 03:31:48;;;;;;;9.50;5.83;;;;;;;15.17;100.00;99771.81;4985933;28;20187;-81
2022/10/28 03:34:17;;;;;;;8.97;5.63;;;;;;;15.14;100.00;99766.69;5003396;28;20202;-81
2022/10/28 03:36:46;;;;;;;10.43;5.90;;;;;;;15.17;100.00;99747.78;5013099;28;20728;-82
2022/10/28 03:39:16;;;;;;;10.10;5.60;;;;;;;15.17;100.00;99747.78;5026502;28;20226;-82
2022/10/28 03:41:46;;;;;;;10.07;5.40;;;;;;;15.21;100.00;99742.22;5113670;28;20195;-82
2022/10/28 03:44:15;;;;;;;16.23;6.10;;;;;;;15.05;100.00;99721.13;5114758;28;20244;-83
2022/10/28 03:46:44;;;;;;;10.77;5.43;;;;;;;15.04;100.00;99709.63;5112431;28;20244;-83
2022/10/28 03:49:13;;;;;;;9.20;5.70;;;;;;;15.00;100.00;99704.63;5109740;28;20271;-83
2022/10/28 03:51:41;;;;;;;10.50;6.10;;;;;;;14.95;100.00;99696.94;5048684;28;20197;-81
2022/10/28 03:54:10;;;;;;;10.53;5.93;;;;;;;14.99;100.00;99701.13;5043051;28;20197;-81
2022/10/28 03:56:39;;;;;;;14.93;6.10;;;;;;;15.03;100.00;99720.41;5043111;28;20192;-81
2022/10/28 03:59:11;;;;;;;13.13;6.40;;;;;;;15.06;100.00;99714.88;5048216;28;20220;-82
2022/10/28 04:01:43;;;;;;;11.10;6.03;;;;;;;15.03;100.00;99715.91;5049800;28;20205;-81
2022/10/28 04:04:12;;;;;;;13.17;6.10;;;;;;;15.07;100.00;99721.91;5045173;28;20205;-81
2022/10/28 04:06:41;;;;;;;11.37;6.43;;;;;;;14.95;100.00;99710.28;5051288;28;20193;-81
2022/10/28 04:09:10;;;;;;;12.90;6.40;;;;;;;14.96;100.00;99728.03;5054904;28;20715;-81
2022/10/28 04:11:38;;;;;;;10.17;6.10;;;;;;;14.95;100.00;99712.97;5102340;28;20219;-81
2022/10/28 04:14:06;;;;;;;12.43;5.90;;;;;;;15.03;100.00;99694.56;5109780;28;20226;-81
2022/10/28 04:16:38;;;;;;;9.37;6.17;;;;;;;15.11;100.00;99700.19;5108239;28;20187;-81
2022/10/28 04:19:06;;;;;;;12.80;5.70;;;;;;;15.22;100.00;99698.56;5107482;28;20206;-81
2022/10/28 04:21:35;;;;;;;15.60;5.63;;;;;;;15.27;100.00;99689.25;5108941;28;20248;-82
2022/10/28 04:24:03;;;;;;;13.07;5.67;;;;;;;15.40;100.00;99683.84;5111575;28;20203;-81
2022/10/28 04:26:33;;;;;;;13.87;5.90;;;;;;;15.52;100.00;99668.69;5048947;28;20197;-81
2022/10/28 04:29:01;;;;;;;14.53;5.43;;;;;;;15.59;100.00;99657.44;4956219;28;20200;-81
2022/10/28 04:31:30;;;;;;;18.97;5.40;;;;;;;15.60;100.00;99644.94;4951822;29;20201;-81
2022/10/28 04:34:00;;;;;;;9.87;4.57;;;;;;;15.71;100.00;99645.81;5029082;28;20247;-81
2022/10/28 04:36:29;;;;;;;9.00;5.10;;;;;;;15.68;100.00;99637.22;5019584;28;20270;-81
2022/10/28 04:38:57;;;;;;;9.87;4.73;;;;;;;15.74;100.00;99623.41;5023022;28;20189;-81
2022/10/28 04:41:26;;;;;;;10.83;4.97;;;;;;;15.76;100.00;99620.59;5018452;28;20217;-81
2022/10/28 04:43:55;;;;;;;12.37;4.70;;;;;;;15.71;100.00;99620.94;5019476;28;20206;-81
2022/10/28 04:46:24;;;;;;;13.13;4.87;;;;;;;15.71;100.00;99616.44;5018119;28;20228;-81
2022/10/28 04:48:53;;;;;;;13.37;4.80;;;;;;;15.67;100.00;99620.34;5017805;28;20279;-81
2022/10/28 04:51:23;;;;;;;14.20;5.17;;;;;;;15.74;100.00;99634.94;5055092;28;20354;-82
2022/10/28 04:53:52;;;;;;;14.23;5.20;;;;;;;15.49;100.00;99666.28;5076250;28;20703;-82
2022/10/28 04:56:20;;;;;;;13.00;5.10;;;;;;;15.38;100.00;99693.78;5110609;28;20201;-81
2022/10/28 04:58:49;;;;;;;8.17;4.83;;;;;;;15.33;100.00;99685.25;5112625;28;20676;-81
2022/10/28 05:01:17;;;;;;;9.63;5.20;;;;;;;15.53;100.00;99681.06;5108825;28;20243;-81
2022/10/28 05:03:46;;;;;;;9.13;4.70;;;;;;;15.32;100.00;99679.06;5105766;28;20195;-81
2022/10/28 05:06:15;;;;;;;9.83;5.10;;;;;;;15.32;100.00;99670.19;5108379;28;20199;-81
2022/10/28 05:08:47;;;;;;;12.33;5.40;;;;;;;15.52;100.00;99671.38;5109212;28;20244;-81
2022/10/28 05:11:15;;;;;;;12.57;5.27;;;;;;;15.47;100.00;99661.03;5085722;28;20686;-81
2022/10/28 05:13:44;;;;;;;13.03;5.50;;;;;;;15.49;100.00;99644.91;5084110;28;20264;-82
2022/10/28 05:16:15;;;;;;;12.70;5.43;;;;;;;15.44;100.00;99634.56;5085200;28;20192;-82
2022/10/28 05:18:45;;;;;;;16.10;5.37;;;;;;;15.45;100.00;99638.97;5003902;28;20248;-82
2022/10/28 05:21:14;;;;;;;13.77;6.27;;;;;;;15.45;100.00;99637.13;5001661;28;20218;-81
2022/10/28 05:23:42;;;;;;;10.63;5.40;;;;;;;15.42;100.00;99639.19;5005677;28;20209;-81
2022/10/28 05:26:13;;;;;;;9.43;4.90;;;;;;;15.44;100.00;99632.78;5005986;28;20249;-81
2022/10/28 05:28:42;;;;;;;7.63;4.70;;;;;;;15.43;100.00;99644.41;4913184;29;20217;-81
2022/10/28 05:31:10;;;;;;;14.00;5.73;;;;;;;15.30;100.00;99624.94;4910280;29;20736;-81
2022/10/28 05:33:39;;;;;;;9.13;5.50;;;;;;;15.26;100.00;99623.50;4906832;29;20225;-81
2022/10/28 05:36:08;;;;;;;12.43;5.17;;;;;;;15.03;100.00;99627.03;4928095;28;20202;-81
2022/10/28 05:38:38;;;;;;;18.23;5.53;;;;;;;15.09;100.00;99626.56;4952654;29;20197;-83
2022/10/28 05:41:11;;;;;;;10.23;5.20;;;;;;;14.97;100.00;99616.84;4946283;29;20626;-81
2022/10/28 05:43:41;;;;;;;12.00;6.27;;;;;;;14.80;100.00;99618.94;4933511;29;20208;-81
2022/10/28 05:46:09;;;;;;;9.47;4.93;;;;;;;14.89;100.00;99626.25;4943318;28;20266;-81
2022/10/28 05:48:38;;;;;;;13.70;4.87;;;;;;;14.85;100.00;99624.75;5007443;28;20234;-80
2022/10/28 05:51:09;;;;;;;9.40;5.67;;;;;;;14.73;100.00;99627.50;5009469;28;20195;-81
2022/10/28 05:53:40;;;;;;;12.27;5.63;;;;;;;14.87;100.00;99630.00;5023091;28;20189;-81
2022/10/28 05:56:09;;;;;;;11.13;5.57;;;;;;;14.57;100.00;99636.63;5003044;28;20266;-81
2022/10/28 05:58:37;;;;;;;12.43;6.03;;;;;;;14.53;100.00;99644.94;5021091;28;20284;-82
2022/10/28 06:01:08;;;;;;;12.13;5.90;;;;;;;14.60;100.00;99648.88;5058065;28;20215;-81
2022/10/28 06:03:37;;;;;;;8.80;5.73;;;;;;;14.63;100.00;99651.31;5012503;28;20198;-81
2022/10/28 06:06:07;;;;;;;10.97;6.23;;;;;;;14.62;100.00;99646.94;5012545;28;20208;-80
2022/10/28 06:08:38;;;;;;;9.40;6.03;;;;;;;14.54;100.00;99652.81;5013984;28;20272;-79
2022/10/28 06:11:06;;;;;;;12.47;6.33;;;;;;;14.63;100.00;99650.47;5010065;28;20252;-80
2022/10/28 06:13:35;;;;;;;11.67;6.27;;;;;;;14.61;100.00;99653.25;5022099;28;20196;-80
2022/10/28 06:16:04;;;;;;;10.53;6.87;;;;;;;14.66;100.00;99652.91;5019744;28;20317;-80
2022/10/28 06:18:34;;;;;;;16.80;7.63;;;;;;;14.79;100.00;99656.38;4994147;28;20348;-80
2022/10/28 06:21:02;;;;;;;14.17;7.27;;;;;;;14.82;100.00;99658.81;4999938;28;20281;-80
2022/10/28 06:23:31;;;;;;;16.40;8.43;;;;;;;14.70;100.00;99665.06;5067645;28;20189;-80
2022/10/28 06:26:01;;;;;;;17.23;9.37;;;;;;;14.83;100.00;99666.69;5061915;28;20245;-80
2022/10/28 06:28:29;;;;;;;15.23;8.97;;;;;;;14.90;100.00;99669.78;5067718;28;20237;-80
2022/10/28 06:31:02;;;;;;;13.80;8.77;;;;;;;14.92;100.00;99672.31;5070256;28;20695;-80
2022/10/28 06:33:30;;;;;;;23.10;11.97;;;;;;;14.87;100.00;99673.53;5069234;28;20204;-80
2022/10/28 06:36:01;;;;;;;21.53;13.87;;;;;;;14.99;100.00;99678.94;5074199;28;20195;-80
2022/10/28 06:38:29;;;;;;;38.87;23.37;;;;;;;14.92;100.00;99680.34;5116396;27;20183;-80
2022/10/28 06:40:59;;;;;;;34.83;21.17;;;;;;;14.98;100.00;99690.56;5113527;28;20237;-80
2022/10/28 06:43:28;;;;;;;27.47;15.63;;;;;;;15.03;100.00;99689.25;5110081;28;20191;-80
2022/10/28 06:45:56;;;;;;;20.47;14.27;;;;;;;15.10;100.00;99687.81;5112173;28;20256;-79
2022/10/28 06:48:24;;;;;;;22.77;13.40;;;;;;;15.02;100.00;99686.69;5110477;28;20260;-80
2022/10/28 06:50:56;;;;;;;19.00;12.90;;;;;;;15.02;100.00;99690.22;5113027;28;20191;-80
2022/10/28 06:53:26;;;;;;;16.00;9.83;;;;;;;14.73;100.00;99691.50;5118495;27;20673;-79
2022/10/28 06:55:55;;;;;;;17.00;9.80;;;;;;;14.81;100.00;99691.78;5110144;28;20199;-80
2022/10/28 06:58:25;;;;;;;13.13;8.40;;;;;;;14.98;100.00;99693.22;5113368;28;20244;-80
2022/10/28 07:00:54;;;;;;;14.10;8.30;;;;;;;15.05;100.00;99692.63;5112911;28;20215;-79
2022/10/28 07:03:22;;;;;;;22.17;13.97;;;;;;;15.13;100.00;99692.94;5111859;28;20218;-80
2022/10/28 07:05:52;;;;;;;20.53;9.33;;;;;;;14.97;100.00;99699.53;5078717;28;20211;-80
2022/10/28 07:08:21;;;;;;;13.87;7.10;;;;;;;15.09;100.00;99703.97;5107057;28;20240;-79
2022/10/28 07:10:56;;;;;;;11.43;6.50;;;;;;;14.77;100.00;99701.84;5111715;28;20202;-80
2022/10/28 07:13:24;;;;;;;12.70;6.43;;;;;;;14.69;100.00;99708.69;5108159;28;20199;-80
2022/10/28 07:15:53;;;;;;;11.83;7.30;;;;;;;15.03;100.00;99709.72;5112695;28;20665;-80
2022/10/28 07:18:22;;;;;;;12.90;6.67;;;;;;;15.09;100.00;99712.81;5112660;28;20234;-80
2022/10/28 07:20:51;;;;;;;13.07;7.40;;;;;;;15.03;100.00;99723.06;5111360;28;20244;-80
2022/10/28 07:23:20;;;;;;;15.83;7.50;;;;;;;15.14;100.00;99723.97;5109899;28;20192;-80
2022/10/28 07:25:53;;;;;;;14.07;7.03;;;;;;;15.33;100.00;99736.81;5109522;28;20238;-80
2022/10/28 07:28:25;;;;;;;9.97;6.50;;;;;;;15.40;100.00;99742.56;5115224;28;20273;-80
2022/10/28 07:30:53;;;;;;;12.03;6.60;;;;;;;15.44;100.00;99728.00;5112723;28;20527;-80
2022/10/28 07:33:22;;;;;;;11.03;6.50;;;;;;;15.43;100.00;99728.97;5114092;28;20252;-80
2022/10/28 07:35:50;;;;;;;10.50;5.97;;;;;;;15.48;100.00;99742.84;5106743;28;20194;-80
2022/10/28 07:38:19;;;;;;;16.17;6.90;;;;;;;15.44;100.00;99736.00;5110268;28;20199;-79
2022/10/28 07:40:47;;;;;;;15.63;7.50;;;;;;;15.46;100.00;99728.75;5099725;28;20203;-80
2022/10/28 07:43:15;;;;;;;61.97;35.47;;;;;;;15.58;100.00;99725.16;5112113;28;20221;-79
2022/10/28 07:45:45;;;;;;;54.23;36.43;;;;;;;15.66;100.00;99717.47;5114641;28;20306;-79
2022/10/28 07:48:14;;;;;;;19.83;11.77;;;;;;;15.65;100.00;99713.09;5114724;28;20199;-80
2022/10/28 07:50:43;;;;;;;14.00;6.73;;;;;;;15.65;100.00;99712.25;5113272;28;20672;-79
2022/10/28 07:53:11;;;;;;;13.10;7.13;;;;;;;15.66;100.00;99704.09;5114848;28;20199;-79
2022/10/28 07:55:40;;;;;;;16.57;7.07;;;;;;;15.69;100.00;99705.69;5110501;28;20199;-80
2022/10/28 07:58:08;;;;;;;17.07;7.70;;;;;;;15.73;100.00;99709.84;5113485;28;20196;-80
2022/10/28 08:00:37;;;;;;;10.13;6.33;;;;;;;15.73;100.00;99701.84;5108470;28;20203;-80
2022/10/28 08:03:12;;;;;;;12.30;6.27;;;;;;;15.81;100.00;99698.53;5110158;28;20230;-80
2022/10/28 08:05:41;;;;;;;13.57;6.23;;;;;;;15.79;100.00;99689.81;5113377;28;20194;-80
2022/10/28 08:08:09;;;;;;;17.03;6.00;;;;;;;15.80;100.00;99678.16;5107770;28;20299;-80
2022/10/28 08:10:38;;;;;;;10.00;5.63;;;;;;;15.85;100.00;99671.50;5031257;28;20217;-80
2022/10/28 08:13:06;;;;;;;14.10;5.90;;;;;;;15.89;100.00;99672.94;5032123;28;20221;-80
2022/10/28 08:15:35;;;;;;;13.97;7.60;;;;;;;16.01;100.00;99674.66;5027505;28;20530;-80
2022/10/28 08:18:03;;;;;;;17.70;10.53;;;;;;;16.11;100.00;99673.94;5021923;28;20198;-80
2022/10/28 08:20:33;;;;;;;35.83;22.20;;;;;;;16.13;100.00;99666.66;5027521;28;20256;-80
2022/10/28 08:23:01;;;;;;;55.60;35.13;;;;;;;16.22;100.00;99681.97;5028024;28;20224;-80
2022/10/28 08:25:34;;;;;;;43.93;28.33;;;;;;;16.19;100.00;99693.75;5029114;28;20205;-80
2022/10/28 08:28:03;;;;;;;31.57;19.60;;;;;;;16.28;100.00;99694.84;5039336;28;20194;-80
2022/10/28 08:30:31;;;;;;;25.80;15.30;;;;;;;16.32;100.00;99699.00;5078858;28;20224;-81
2022/10/28 08:33:20;;;;;;;93.27;49.47;;;;;;;16.48;100.00;99693.25;5112231;28;20201;-81
2022/10/28 08:35:53;;;;;;;170.53;102.60;;;;;;;16.51;100.00;99693.03;5111696;28;20199;-80
2022/10/28 08:38:22;;;;;;;81.20;47.40;;;;;;;16.38;100.00;99694.97;5112969;28;20249;-81
2022/10/28 08:40:57;;;;;;;37.57;22.90;;;;;;;16.63;100.00;99699.22;5103254;28;20229;-81
2022/10/28 08:43:34;;;;;;;15.70;7.73;;;;;;;16.38;100.00;99694.97;5113945;28;20206;-80
2022/10/28 08:46:33;;;;;;;17.10;8.27;;;;;;;16.38;100.00;99689.63;5114440;28;20277;-80
2022/10/28 08:49:03;;;;;;;15.97;8.17;;;;;;;16.35;100.00;99690.72;5114942;28;20236;-80
2022/10/28 08:51:42;;;;;;;24.60;14.37;;;;;;;16.73;100.00;99686.84;5108303;28;20198;-80
2022/10/28 08:54:17;;;;;;;14.37;6.90;;;;;;;16.69;100.00;99682.69;5110956;28;20197;-80
2022/10/28 08:56:47;;;;;;;16.00;10.00;;;;;;;16.84;100.00;99676.09;5112673;28;20199;-80
2022/10/28 08:59:22;;;;;;;10.47;4.87;;;;;;;16.90;100.00;99680.13;5112661;28;20198;-81
2022/10/28 09:01:56;;;;;;;9.20;6.03;;;;;;;17.15;100.00;99682.47;5113633;28;20209;-81
2022/10/28 09:04:36;;;;;;;13.80;6.10;;;;;;;17.15;100.00;99683.31;5075707;28;20240;-80
2022/10/28 09:07:14;;;;;;;10.50;5.53;;;;;;;17.09;100.00;99680.31;5112149;28;20199;-80
2022/10/28 09:09:43;;;;;;;13.10;5.90;;;;;;;17.05;100.00;99676.16;5112612;28;20187;-80
2022/10/28 09:12:24;;;;;;;11.03;6.07;;;;;;;17.25;100.00;99667.31;5111853;28;20230;-80
2022/10/28 09:15:10;;;;;;;11.50;5.90;;;;;;;17.27;100.00;99662.69;5112343;28;20187;-79
2022/10/28 09:17:48;;;;;;;12.63;7.37;;;;;;;17.43;100.00;99649.72;5111950;28;20203;-82
2022/10/28 09:20:20;;;;;;;10.90;4.87;;;;;;;17.63;100.00;99636.47;5111876;28;20249;-80
2022/10/28 09:22:56;;;;;;;11.03;5.77;;;;;;;17.61;100.00;99641.09;5113018;28;20741;-80
2022/10/28 09:25:33;;;;;;;13.00;5.27;;;;;;;17.66;100.00;99637.06;5108828;28;20198;-80
2022/10/28 09:28:20;;;;;;;14.27;5.73;;;;;;;17.63;100.00;99634.63;5116869;28;20198;-83
2022/10/28 09:30:58;;;;;;;11.73;5.77;;;;;;;17.52;100.00;99633.84;5117371;28;20183;-82
2022/10/28 09:33:49;;;;;;;8.50;4.50;;;;;;;17.57;100.00;99651.25;5112939;28;20247;-80
2022/10/28 09:36:25;;;;;;;9.17;4.17;;;;;;;17.49;100.00;99648.34;5117641;28;20199;-80
2022/10/28 09:39:00;;;;;;;8.57;4.37;;;;;;;17.50;100.00;99646.53;5114801;28;20187;-83
2022/10/28 09:41:33;;;;;;;12.20;4.60;;;;;;;17.54;100.00;99658.66;5116095;28;20198;-83
2022/10/28 09:44:08;;;;;;;8.10;4.60;;;;;;;17.54;100.00;99651.47;5117189;28;20222;-83
2022/10/28 09:46:39;;;;;;;10.90;4.53;;;;;;;17.56;100.00;99649.50;5116924;28;20209;-80
2022/10/28 09:49:15;;;;;;;13.23;4.60;;;;;;;17.67;100.00;99648.63;5114205;28;20194;-83
2022/10/28 09:51:50;;;;;;;12.03;4.77;;;;;;;17.71;100.00;99639.38;5051867;28;20222;-80
2022/10/28 09:54:28;;;;;;;8.07;4.17;;;;;;;17.71;100.00;99647.41;5051753;28;20193;-80
2022/10/28 09:56:57;;;;;;;10.57;5.03;;;;;;;17.80;100.00;99640.41;5047000;28;20193;-82
2022/10/28 09:59:25;;;;;;;11.13;4.83;;;;;;;17.86;100.00;99640.75;5048947;28;20185;-80
2022/10/28 10:01:54;;;;;;;9.87;4.03;;;;;;;17.85;100.00;99646.19;5002686;28;20189;-80
2022/10/28 10:04:25;;;;;;;14.47;4.87;;;;;;;17.92;100.00;99652.75;5047562;28;20216;-82
2022/10/28 10:06:58;;;;;;;10.23;3.93;;;;;;;17.83;100.00;99648.16;5050610;28;20251;-84
2022/10/28 10:09:32;;;;;;;9.73;4.27;;;;;;;17.99;100.00;99653.91;5072831;28;20183;-82
2022/10/28 10:12:06;;;;;;;9.17;3.50;;;;;;;17.98;100.00;99645.03;5116058;27;20232;-83
2022/10/28 10:14:40;;;;;;;16.50;8.83;;;;;;;18.30;100.00;99644.88;5116914;28;20198;-82
2022/10/28 10:17:15;;;;;;;9.77;4.33;;;;;;;18.31;100.00;99646.56;5115215;28;20243;-80
2022/10/28 10:20:01;;;;;;;11.73;4.40;;;;;;;18.29;100.00;99637.81;5116474;28;20305;-82
2022/10/28 10:22:33;;;;;;;9.90;4.70;;;;;;;18.45;100.00;99634.63;5111516;28;20201;-80
2022/10/28 10:25:03;;;;;;;15.80;5.00;;;;;;;18.32;100.00;99620.59;5110114;28;20658;-79
2022/10/28 10:27:32;;;;;;;8.30;5.23;;;;;;;18.23;100.00;99627.63;5115183;28;20197;-80
2022/10/28 10:30:00;;;;;;;14.43;6.80;;;;;;;18.22;100.00;99623.25;5107814;28;20199;-80
2022/10/28 10:32:32;;;;;;;8.47;4.60;;;;;;;18.49;100.00;99627.16;5114419;28;20190;-80
2022/10/28 10:35:05;;;;;;;11.60;4.10;;;;;;;18.93;100.00;99628.56;5116518;28;20195;-83
2022/10/28 10:37:36;;;;;;;8.77;4.57;;;;;;;19.08;100.00;99631.66;5113747;28;20220;-83
2022/10/28 10:40:18;;;;;;;11.10;4.50;;;;;;;18.96;100.00;99639.00;5079879;28;20283;-83
2022/10/28 10:42:47;;;;;;;8.90;4.57;;;;;;;18.82;100.00;99634.06;5114912;28;20195;-83
2022/10/28 10:45:36;;;;;;;10.13;4.23;;;;;;;18.81;100.00;99625.13;5116387;28;20286;-84
2022/10/28 10:48:11;;;;;;;12.63;4.13;;;;;;;18.87;100.00;99629.09;5112321;28;20190;-83
2022/10/28 10:50:41;;;;;;;9.43;3.90;;;;;;;18.77;100.00;99633.59;5112958;28;20272;-83
2022/10/28 10:53:20;;;;;;;9.40;5.20;;;;;;;18.92;100.00;99615.28;5116267;28;20195;-83
2022/10/28 10:55:53;;;;;;;9.90;4.27;;;;;;;18.65;100.00;99624.84;5110648;28;20206;-83
2022/10/28 10:58:24;;;;;;;8.97;3.50;;;;;;;19.12;100.00;99622.34;5113556;28;20198;-83
2022/10/28 11:00:55;;;;;;;9.70;4.10;;;;;;;19.12;100.00;99614.28;5107592;28;20251;-83
2022/10/28 11:03:27;;;;;;;11.97;4.40;;;;;;;19.47;100.00;99618.22;5115704;27;20214;-83
2022/10/28 11:05:58;;;;;;;10.90;4.10;;;;;;;19.48;100.00;99612.69;5108256;28;20199;-81
2022/10/28 11:08:46;;;;;;;13.77;6.13;;;;;;;19.44;100.00;99616.66;5116275;28;20706;-84
2022/10/28 11:11:23;;;;;;;12.67;5.43;;;;;;;19.84;100.00;99612.94;5109378;28;20211;-81
2022/10/28 11:14:04;;;;;;;10.77;4.13;;;;;;;19.79;100.00;99596.41;5116083;28;20191;-81
2022/10/28 11:16:33;;;;;;;10.60;5.10;;;;;;;19.89;100.00;99594.53;5115788;28;20194;-81
2022/10/28 11:19:19;;;;;;;6.57;3.97;;;;;;;20.23;100.00;99587.56;5114777;28;20195;-81
2022/10/28 11:22:01;;;;;;;12.53;6.53;;;;;;;20.42;100.00;99589.31;5111603;28;20265;-82
2022/10/28 11:24:49;;;;;;;13.23;5.83;;;;;;;20.34;100.00;99586.53;5108072;28;20276;-81
2022/10/28 11:27:31;;;;;;;9.50;4.40;;;;;;;20.33;100.00;99576.75;5074008;28;20240;-80
2022/10/28 11:30:01;;;;;;;13.67;6.23;;;;;;;20.39;100.00;99572.63;5070831;28;20534;-80
2022/10/28 11:32:42;;;;;;;23.50;11.23;;;;;;;20.46;100.00;99568.34;5069566;28;20212;-81
2022/10/28 11:35:42;;;;;;;10.83;4.60;;;;;;;20.53;100.00;99569.44;5073373;28;20236;-81
2022/10/28 11:38:23;;;;;;;16.20;4.67;;;;;;;19.82;100.00;99563.84;5074814;28;20230;-80
2022/10/28 11:41:06;;;;;;;16.97;6.80;;;;;;;19.83;100.00;99566.38;5070155;28;20200;-83
2022/10/28 11:43:44;;;;;;;10.97;5.00;;;;;;;19.69;100.00;99564.19;5065376;28;20220;-80